createdAt,value
2022-08-10T00:01:52.234Z,50.60
2022-08-10T00:04:22.314Z,51.20
2022-08-10T00:06:52.528Z,50.40
2022-08-10T00:09:20.826Z,50.40
2022-08-10T00:11:49.035Z,51.30
2022-08-10T00:14:17.369Z,50.10
2022-08-10T00:16:46.937Z,51.10
2022-08-10T00:19:16.651Z,49.90
2022-08-10T00:21:46.440Z,50.20
2022-08-10T00:24:15.279Z,50.70
2022-08-10T00:28:01.504Z,50.30
2022-08-10T00:29:32.152Z,50.30
2022-08-10T00:32:01.779Z,51.00
2022-08-10T00:34:30.772Z,50.40
2022-08-10T00:36:59.079Z,50.70
2022-08-10T00:39:27.633Z,50.60
2022-08-10T00:42:06.719Z,51.10
2022-08-10T00:44:37.320Z,50.60
2022-08-10T00:47:07.497Z,50.90
2022-08-10T00:49:55.658Z,50.90
2022-08-10T00:52:25.664Z,50.70
2022-08-10T00:54:54.292Z,51.30
2022-08-10T00:57:22.956Z,51.20
2022-08-10T00:59:59.210Z,51.10
2022-08-10T01:02:32.041Z,51.40
2022-08-10T01:05:03.540Z,51.10
2022-08-10T01:07:57.751Z,51.80
2022-08-10T01:10:35.788Z,51.50
2022-08-10T01:13:10.818Z,51.10
2022-08-10T01:15:53.856Z,51.30
2022-08-10T01:18:37.784Z,51.40
2022-08-10T01:21:46.205Z,51.90
2022-08-10T01:24:50.524Z,51.20
2022-08-10T01:27:29.475Z,51.90
2022-08-10T01:30:04.203Z,51.50
2022-08-10T01:32:43.237Z,51.30
2022-08-10T01:35:14.784Z,51.60
2022-08-10T01:37:52.222Z,51.50
2022-08-10T01:40:26.232Z,51.70
2022-08-10T01:42:59.635Z,51.50
2022-08-10T01:45:44.741Z,51.70
2022-08-10T01:48:31.646Z,51.40
2022-08-10T01:51:09.524Z,51.50
2022-08-10T01:53:42.868Z,51.80
2022-08-10T01:56:13.913Z,51.50
2022-08-10T01:58:43.416Z,51.80
2022-08-10T02:01:17.482Z,51.90
2022-08-10T02:04:01.217Z,51.50
2022-08-10T02:06:37.950Z,51.70
2022-08-10T02:09:08.242Z,51.40
2022-08-10T02:12:05.622Z,51.70
2022-08-10T02:14:33.940Z,52.00
2022-08-10T02:17:07.453Z,51.70
2022-08-10T02:19:39.644Z,52.00
2022-08-10T02:22:38.009Z,52.00
2022-08-10T02:25:00.219Z,51.70
2022-08-10T02:27:29.927Z,51.90
2022-08-10T02:29:59.960Z,51.90
2022-08-10T02:32:38.271Z,52.50
2022-08-10T02:35:15.558Z,51.80
2022-08-10T02:37:53.976Z,51.90
2022-08-10T02:45:02.255Z,51.90
2022-08-10T02:45:20.127Z,51.80
2022-08-10T02:46:14.206Z,52.20
2022-08-10T02:48:55.234Z,52.20
2022-08-10T02:52:07.614Z,52.10
2022-08-10T02:54:23.085Z,52.30
2022-08-10T02:56:57.596Z,52.00
2022-08-10T02:59:40.030Z,52.40
2022-08-10T03:02:12.064Z,52.20
2022-08-10T03:04:57.297Z,52.50
2022-08-10T03:07:42.819Z,52.20
2022-08-10T03:10:16.221Z,52.90
2022-08-10T03:12:46.145Z,52.10
2022-08-10T03:15:16.107Z,52.30
2022-08-10T03:17:57.140Z,52.60
2022-08-10T03:20:37.310Z,52.80
2022-08-10T03:23:12.171Z,52.20
2022-08-10T03:25:41.042Z,52.40
2022-08-10T03:28:22.640Z,52.40
2022-08-10T03:30:51.285Z,52.60
2022-08-10T03:33:20.835Z,52.50
2022-08-10T03:36:43.621Z,52.20
2022-08-10T03:38:40.425Z,52.40
2022-08-10T03:41:16.255Z,52.20
2022-08-10T03:43:48.019Z,52.00
2022-08-10T03:46:20.072Z,52.50
2022-08-10T03:48:51.009Z,52.20
2022-08-10T03:51:21.214Z,52.50
2022-08-10T03:54:04.604Z,52.80
2022-08-10T03:56:37.971Z,52.00
2022-08-10T03:59:07.876Z,52.70
2022-08-10T04:02:41.434Z,52.60
2022-08-10T04:04:25.989Z,51.90
2022-08-10T04:06:57.942Z,52.20
2022-08-10T04:09:42.957Z,52.60
2022-08-10T04:12:16.695Z,52.20
2022-08-10T04:14:50.949Z,52.30
2022-08-10T04:17:57.179Z,52.30
2022-08-10T04:20:17.998Z,52.80
2022-08-10T04:22:51.104Z,52.80
2022-08-10T04:25:20.819Z,53.00
2022-08-10T04:27:49.686Z,53.00
2022-08-10T04:30:18.091Z,52.50
2022-08-10T04:32:50.104Z,52.30
2022-08-10T04:35:21.377Z,52.60
2022-08-10T04:37:52.733Z,52.60
2022-08-10T04:40:29.000Z,53.10
2022-08-10T04:43:11.193Z,52.40
2022-08-10T04:45:49.682Z,52.80
2022-08-10T04:48:40.877Z,52.60
2022-08-10T04:51:17.018Z,53.00
2022-08-10T04:54:02.845Z,52.60
2022-08-10T04:56:35.519Z,52.60
2022-08-10T04:59:05.094Z,52.30
2022-08-10T05:02:21.449Z,52.50
2022-08-10T05:04:34.551Z,52.10
2022-08-10T05:07:08.157Z,52.50
2022-08-10T05:10:04.971Z,52.40
2022-08-10T05:12:26.545Z,52.80
2022-08-10T05:14:54.947Z,52.60
2022-08-10T05:17:23.581Z,52.40
2022-08-10T05:20:02.975Z,52.40
2022-08-10T05:22:36.514Z,52.20
2022-08-10T05:25:09.257Z,52.30
2022-08-10T05:27:37.735Z,52.50
2022-08-10T05:30:08.110Z,52.60
2022-08-10T05:32:58.530Z,52.60
2022-08-10T05:35:26.218Z,52.50
2022-08-10T05:38:11.753Z,52.70
2022-08-10T05:40:46.546Z,52.30
2022-08-10T05:43:18.664Z,52.20
2022-08-10T05:46:16.949Z,52.40
2022-08-10T05:48:54.953Z,52.90
2022-08-10T05:51:24.225Z,53.00
2022-08-10T05:54:02.200Z,53.10
2022-08-10T05:56:55.285Z,53.40
2022-08-10T06:00:32.952Z,53.90
2022-08-10T06:02:35.740Z,54.10
2022-08-10T06:05:10.040Z,53.90
2022-08-10T06:07:42.051Z,53.90
2022-08-10T06:10:14.069Z,53.60
2022-08-10T06:13:30.069Z,53.50
2022-08-10T06:16:08.054Z,53.50
2022-08-10T06:18:37.408Z,53.40
2022-08-10T06:21:09.614Z,53.20
2022-08-10T06:23:39.348Z,53.20
2022-08-10T06:26:13.435Z,53.20
2022-08-10T06:29:02.240Z,53.20
2022-08-10T06:31:47.085Z,53.20
2022-08-10T06:34:20.215Z,53.10
2022-08-10T06:36:49.018Z,53.10
2022-08-10T06:39:32.941Z,53.10
2022-08-10T06:42:16.512Z,53.10
2022-08-10T06:44:55.664Z,53.10
2022-08-10T06:47:27.722Z,53.10
2022-08-10T06:50:02.680Z,53.10
2022-08-10T06:52:35.094Z,53.30
2022-08-10T06:55:08.619Z,53.50
2022-08-10T06:57:38.821Z,53.60
2022-08-10T07:00:10.147Z,53.60
2022-08-10T07:02:45.359Z,53.80
2022-08-10T07:05:20.078Z,54.10
2022-08-10T07:07:49.267Z,54.60
2022-08-10T07:10:20.904Z,55.50
2022-08-10T07:12:51.410Z,55.30
2022-08-10T07:15:21.988Z,55.10
2022-08-10T07:17:53.706Z,54.90
2022-08-10T07:20:24.289Z,54.60
2022-08-10T07:23:01.545Z,54.70
2022-08-10T07:25:46.854Z,54.60
2022-08-10T07:28:15.958Z,54.50
2022-08-10T07:30:47.172Z,54.40
2022-08-10T07:33:18.529Z,54.30
2022-08-10T07:35:48.480Z,54.50
2022-08-10T07:38:19.750Z,54.40
2022-08-10T07:40:49.704Z,54.30
2022-08-10T07:43:19.102Z,54.20
2022-08-10T07:45:49.378Z,53.90
2022-08-10T07:48:20.764Z,54.10
2022-08-10T07:50:50.296Z,54.00
2022-08-10T07:53:22.541Z,53.90
2022-08-10T07:56:03.711Z,53.90
2022-08-10T07:58:39.436Z,53.80
2022-08-10T08:01:19.015Z,53.70
2022-08-10T08:04:05.689Z,53.80
2022-08-10T08:06:38.349Z,53.80
2022-08-10T08:09:07.450Z,53.70
2022-08-10T08:11:37.655Z,53.80
2022-08-10T08:14:08.573Z,53.80
2022-08-10T08:16:41.231Z,53.80
2022-08-10T08:19:26.401Z,53.60
2022-08-10T08:24:07.659Z,53.60
2022-08-10T08:24:46.870Z,53.60
2022-08-10T08:27:17.283Z,53.70
2022-08-10T08:29:47.863Z,53.60
2022-08-10T08:32:22.236Z,53.60
2022-08-10T08:34:54.482Z,53.60
2022-08-10T08:38:31.298Z,53.50
2022-08-10T08:40:16.678Z,53.50
2022-08-10T08:43:10.190Z,53.40
2022-08-10T08:46:00.662Z,53.50
2022-08-10T08:48:52.614Z,53.80
2022-08-10T08:52:16.915Z,53.80
2022-08-10T08:54:35.151Z,53.90
2022-08-10T08:57:09.244Z,53.90
2022-08-10T08:59:53.063Z,53.90
2022-08-10T09:02:35.624Z,53.90
2022-08-10T09:05:25.047Z,53.80
2022-08-10T09:08:22.842Z,53.70
2022-08-10T09:10:58.512Z,53.60
2022-08-10T09:13:32.494Z,53.70
2022-08-10T09:16:16.575Z,53.70
2022-08-10T09:18:52.353Z,53.80
2022-08-10T09:21:43.350Z,53.70
2022-08-10T09:24:44.985Z,53.60
2022-08-10T09:27:20.297Z,53.40
2022-08-10T09:29:55.807Z,53.30
2022-08-10T09:36:16.199Z,53.20
2022-08-10T09:36:27.004Z,53.10
2022-08-10T09:38:29.586Z,52.90
2022-08-10T09:41:13.149Z,53.20
2022-08-10T09:43:49.342Z,53.10
2022-08-10T09:46:30.767Z,53.10
2022-08-10T09:49:06.585Z,53.10
2022-08-10T09:51:47.164Z,53.10
2022-08-10T09:54:43.787Z,53.10
2022-08-10T09:57:45.045Z,52.90
2022-08-10T10:00:12.649Z,52.90
2022-08-10T10:02:52.530Z,52.90
2022-08-10T10:05:32.059Z,52.80
2022-08-10T10:08:11.919Z,52.40
2022-08-10T10:10:53.470Z,52.70
2022-08-10T10:13:50.026Z,51.50
2022-08-10T10:16:40.483Z,52.00
2022-08-10T10:19:28.439Z,51.50
2022-08-10T10:22:10.125Z,51.60
2022-08-10T10:24:46.722Z,51.10
2022-08-10T10:27:24.753Z,50.70
2022-08-10T10:30:00.937Z,51.50
2022-08-10T10:32:40.346Z,51.60
2022-08-10T10:35:24.486Z,51.70
2022-08-10T10:38:01.065Z,51.40
2022-08-10T10:40:38.761Z,51.90
2022-08-10T10:43:22.253Z,51.60
2022-08-10T10:45:59.923Z,51.80
2022-08-10T10:48:41.334Z,51.90
2022-08-10T10:51:15.207Z,51.90
2022-08-10T10:53:50.337Z,51.90
2022-08-10T10:56:27.608Z,51.90
2022-08-10T10:59:53.995Z,52.20
2022-08-10T11:02:07.438Z,52.00
2022-08-10T11:04:43.540Z,50.20
2022-08-10T11:07:21.959Z,50.60
2022-08-10T11:10:05.057Z,51.30
2022-08-10T11:12:56.984Z,51.20
2022-08-10T11:15:42.782Z,50.30
2022-08-10T11:18:34.276Z,50.70
2022-08-10T11:21:15.159Z,49.60
2022-08-10T11:24:48.664Z,50.60
2022-08-10T11:26:52.941Z,50.10
2022-08-10T11:29:26.481Z,50.60
2022-08-10T11:32:04.734Z,50.50
2022-08-10T11:34:48.422Z,50.70
2022-08-10T11:38:30.999Z,50.90
2022-08-10T11:40:32.930Z,51.40
2022-08-10T11:43:14.494Z,51.40
2022-08-10T11:45:51.539Z,51.40
2022-08-10T11:48:52.807Z,51.20
2022-08-10T11:51:26.250Z,51.20
2022-08-10T11:54:01.375Z,51.20
2022-08-10T11:56:34.051Z,50.50
2022-08-10T11:59:19.558Z,50.60
2022-08-10T12:01:51.767Z,49.90
2022-08-10T12:04:22.980Z,50.80
2022-08-10T12:06:55.559Z,50.40
2022-08-10T12:10:10.716Z,50.90
2022-08-10T12:12:15.053Z,50.90
2022-08-10T12:14:51.585Z,50.50
2022-08-10T12:17:25.093Z,50.60
2022-08-10T12:20:04.287Z,50.80
2022-08-10T12:22:39.624Z,50.80
2022-08-10T12:25:17.907Z,50.70
2022-08-10T12:28:12.526Z,50.40
2022-08-10T12:30:47.633Z,50.30
2022-08-10T12:33:22.724Z,50.50
2022-08-10T12:36:17.987Z,50.40
2022-08-10T12:38:53.144Z,50.50
2022-08-10T12:41:45.009Z,50.30
2022-08-10T12:44:19.207Z,50.20
2022-08-10T12:47:01.064Z,50.20
2022-08-10T12:50:17.178Z,50.10
2022-08-10T12:52:43.406Z,50.00
2022-08-10T12:55:12.758Z,49.80
2022-08-10T12:57:42.154Z,49.00
2022-08-10T13:00:17.300Z,50.00
2022-08-10T13:02:49.106Z,50.10
2022-08-10T13:05:18.669Z,50.30
2022-08-10T13:08:26.328Z,50.30
2022-08-10T13:11:04.966Z,50.30
2022-08-10T13:13:56.390Z,50.50
2022-08-10T13:16:25.546Z,50.60
2022-08-10T13:19:03.078Z,50.10
2022-08-10T13:21:35.926Z,50.40
2022-08-10T13:24:11.249Z,50.40
2022-08-10T13:27:03.779Z,50.30
2022-08-10T13:29:36.499Z,50.10
2022-08-10T13:32:10.555Z,50.20
2022-08-10T13:34:45.849Z,49.60
2022-08-10T13:37:17.206Z,50.10
2022-08-10T13:39:58.903Z,50.00
2022-08-10T13:42:32.296Z,49.70
2022-08-10T13:45:10.393Z,49.30
2022-08-10T13:47:48.880Z,49.60
2022-08-10T13:50:33.461Z,49.60
2022-08-10T13:53:11.541Z,49.50
2022-08-10T13:55:54.053Z,49.40
2022-08-10T13:58:27.286Z,49.60
2022-08-10T14:00:56.997Z,49.80
2022-08-10T14:03:26.834Z,49.70
2022-08-10T14:05:57.166Z,49.30
2022-08-10T14:08:27.675Z,49.10
2022-08-10T14:11:11.121Z,49.00
2022-08-10T14:13:45.403Z,49.60
2022-08-10T14:16:14.514Z,48.60
2022-08-10T14:18:45.794Z,49.60
2022-08-10T14:21:14.755Z,48.90
2022-08-10T14:23:51.852Z,49.70
2022-08-10T14:26:26.054Z,48.30
2022-08-10T14:28:57.287Z,49.30
2022-08-10T14:31:33.825Z,47.20
2022-08-10T14:34:05.578Z,47.80
2022-08-10T14:36:40.767Z,48.50
2022-08-10T14:39:12.859Z,48.40
2022-08-10T14:42:04.169Z,48.20
2022-08-10T14:44:33.422Z,48.10
2022-08-10T14:47:20.179Z,48.50
2022-08-10T14:49:57.845Z,48.80
2022-08-10T14:52:28.502Z,48.70
2022-08-10T14:54:58.101Z,48.30
2022-08-10T14:58:16.465Z,48.50
2022-08-10T15:00:33.117Z,48.50
2022-08-10T15:03:10.965Z,48.10
2022-08-10T15:05:53.553Z,48.50
2022-08-10T15:08:29.403Z,48.60
2022-08-10T15:11:09.075Z,48.60
2022-08-10T15:14:20.073Z,48.70
2022-08-10T15:16:49.778Z,48.40
2022-08-10T15:20:00.670Z,48.70
2022-08-10T15:22:35.929Z,48.70
2022-08-10T15:25:18.647Z,48.30
2022-08-10T15:27:57.796Z,48.10
2022-08-10T15:30:43.820Z,48.10
2022-08-10T15:33:57.917Z,48.50
2022-08-10T15:36:40.582Z,48.20
2022-08-10T15:39:16.557Z,48.30
2022-08-10T15:42:03.394Z,48.00
2022-08-10T15:44:38.952Z,47.80
2022-08-10T15:47:11.908Z,47.60
2022-08-10T15:49:46.516Z,47.90
2022-08-10T15:52:39.434Z,47.10
2022-08-10T15:55:44.178Z,47.30
2022-08-10T15:58:06.690Z,46.90
2022-08-10T16:00:40.522Z,47.20
2022-08-10T16:03:18.219Z,47.20
2022-08-10T16:06:02.565Z,47.00
2022-08-10T16:08:56.158Z,47.00
2022-08-10T16:11:38.783Z,47.10
2022-08-10T16:14:12.956Z,47.10
2022-08-10T16:16:42.455Z,47.20
2022-08-10T16:19:22.426Z,47.10
2022-08-10T16:22:00.879Z,47.10
2022-08-10T16:24:33.908Z,46.90
2022-08-10T16:27:07.500Z,46.70
2022-08-10T16:29:56.374Z,47.10
2022-08-10T16:32:26.600Z,46.80
2022-08-10T16:34:57.773Z,47.10
2022-08-10T16:37:57.254Z,47.40
2022-08-10T16:40:23.862Z,47.50
2022-08-10T16:42:53.025Z,47.00
2022-08-10T16:45:24.864Z,46.80
2022-08-10T16:47:54.690Z,47.30
2022-08-10T16:50:28.521Z,46.90
2022-08-10T16:53:01.858Z,47.10
2022-08-10T16:55:47.317Z,46.80
2022-08-10T16:58:20.522Z,46.50
2022-08-10T17:00:51.172Z,46.50
2022-08-10T17:04:06.992Z,46.50
2022-08-10T17:06:21.890Z,46.70
2022-08-10T17:08:53.555Z,47.10
2022-08-10T17:11:28.295Z,46.50
2022-08-10T17:13:58.018Z,46.50
2022-08-10T17:16:28.582Z,46.60
2022-08-10T17:18:59.622Z,47.00
2022-08-10T17:21:36.331Z,46.20
2022-08-10T17:24:07.377Z,46.70
2022-08-10T17:26:37.807Z,46.50
2022-08-10T17:29:54.139Z,46.60
2022-08-10T17:32:08.154Z,46.10
2022-08-10T17:34:41.009Z,46.50
2022-08-10T17:37:17.838Z,46.50
2022-08-10T17:39:51.389Z,46.90
2022-08-10T17:42:22.219Z,47.00
2022-08-10T17:44:55.232Z,46.80
2022-08-10T17:47:27.244Z,47.30
2022-08-10T17:49:57.785Z,47.00
2022-08-10T17:52:31.600Z,46.80
2022-08-10T17:55:04.851Z,46.90
2022-08-10T17:57:37.731Z,46.70
2022-08-10T18:00:08.559Z,47.10
2022-08-10T18:02:40.235Z,47.10
2022-08-10T18:05:10.594Z,47.00
2022-08-10T18:07:46.312Z,47.20
2022-08-10T18:10:19.867Z,47.20
2022-08-10T18:12:50.148Z,46.60
2022-08-10T18:15:22.123Z,47.10
2022-08-10T18:17:59.085Z,47.30
2022-08-10T18:20:35.953Z,47.30
2022-08-10T18:23:07.911Z,47.20
2022-08-10T18:25:39.229Z,47.20
2022-08-10T18:28:11.949Z,47.30
2022-08-10T18:30:48.069Z,47.30
2022-08-10T18:33:18.439Z,47.30
2022-08-10T18:35:48.967Z,47.30
2022-08-10T18:38:20.012Z,47.40
2022-08-10T18:40:54.168Z,47.40
2022-08-10T18:44:10.849Z,47.40
2022-08-10T18:46:22.646Z,47.50
2022-08-10T18:48:56.958Z,47.40
2022-08-10T18:51:28.122Z,47.50
2022-08-10T18:54:05.384Z,47.60
2022-08-10T18:56:55.117Z,47.70
2022-08-10T19:00:03.905Z,47.60
2022-08-10T19:02:47.110Z,47.50
2022-08-10T19:05:30.575Z,47.50
2022-08-10T19:08:31.081Z,47.80
2022-08-10T19:11:07.402Z,47.90
2022-08-10T19:13:48.865Z,47.80
2022-08-10T19:16:30.288Z,48.10
2022-08-10T19:19:21.802Z,48.20
2022-08-10T19:22:01.477Z,48.10
2022-08-10T19:24:39.443Z,48.10
2022-08-10T19:27:15.315Z,48.20
2022-08-10T19:30:07.953Z,48.10
2022-08-10T19:32:52.838Z,48.10
2022-08-10T19:35:32.822Z,48.10
2022-08-10T19:38:16.399Z,48.10
2022-08-10T19:40:56.039Z,48.10
2022-08-10T19:44:00.264Z,48.10
2022-08-10T19:46:36.967Z,48.20
2022-08-10T19:49:14.955Z,48.20
2022-08-10T19:51:52.801Z,48.20
2022-08-10T19:54:32.012Z,48.20
2022-08-10T19:57:08.347Z,48.20
2022-08-10T20:00:15.926Z,48.10
2022-08-10T20:02:54.231Z,48.20
2022-08-10T20:05:30.944Z,48.20
2022-08-10T20:08:06.516Z,48.30
2022-08-10T20:10:44.228Z,48.50
2022-08-10T20:13:21.547Z,48.50
2022-08-10T20:16:01.733Z,48.60
2022-08-10T20:18:36.050Z,48.50
2022-08-10T20:21:13.565Z,48.50
2022-08-10T20:23:55.030Z,48.50
2022-08-10T20:26:25.997Z,48.60
2022-08-10T20:29:06.834Z,48.60
2022-08-10T20:31:42.329Z,48.70
2022-08-10T20:34:19.271Z,48.80
2022-08-10T20:36:58.672Z,48.80
2022-08-10T20:39:38.122Z,48.80
2022-08-10T20:42:13.124Z,48.60
2022-08-10T20:44:53.566Z,48.70
2022-08-10T20:47:54.122Z,48.90
2022-08-10T20:50:32.363Z,48.80
2022-08-10T20:53:02.446Z,48.70
2022-08-10T20:55:51.909Z,48.70
2022-08-10T20:58:35.156Z,48.60
2022-08-10T21:01:17.302Z,48.60
2022-08-10T21:04:14.250Z,48.60
2022-08-10T21:07:01.726Z,48.60
2022-08-10T21:09:49.205Z,48.80
2022-08-10T21:12:48.588Z,48.70
2022-08-10T21:15:28.547Z,48.60
2022-08-10T21:21:41.980Z,48.60
2022-08-10T21:24:15.105Z,48.70
2022-08-10T21:27:02.376Z,48.80
2022-08-10T21:29:53.964Z,48.80
2022-08-10T21:32:38.433Z,48.80
2022-08-10T21:35:20.356Z,48.90
2022-08-10T21:38:12.894Z,49.00
2022-08-10T21:41:17.591Z,49.10
2022-08-10T21:44:16.177Z,49.00
2022-08-10T21:47:10.189Z,48.00
2022-08-10T21:50:16.288Z,48.20
2022-08-10T21:53:09.519Z,45.80
2022-08-10T21:56:11.546Z,46.20
2022-08-10T21:59:07.190Z,46.90
2022-08-10T22:01:57.249Z,47.10
2022-08-10T22:04:45.644Z,47.40
2022-08-10T22:07:36.341Z,47.60
2022-08-10T22:10:25.626Z,47.90
2022-08-10T22:13:17.345Z,48.40
2022-08-10T22:16:12.232Z,48.80
2022-08-10T22:22:27.605Z,49.70
2022-08-10T22:25:31.964Z,49.80
2022-08-10T22:28:21.616Z,50.20
2022-08-10T22:31:24.473Z,48.60
2022-08-10T22:31:26.030Z,49.10
2022-08-10T22:31:31.143Z,50.40
2022-08-10T22:34:30.423Z,50.70
2022-08-10T22:37:35.917Z,50.70
2022-08-10T22:40:28.928Z,51.20
2022-08-10T22:43:35.431Z,51.40
2022-08-10T22:46:43.646Z,51.20
2022-08-10T22:49:11.937Z,51.90
2022-08-10T22:51:51.036Z,52.00
2022-08-10T22:54:41.561Z,52.30
2022-08-10T22:57:31.606Z,53.10
2022-08-10T23:00:09.611Z,52.80
2022-08-10T23:02:40.205Z,52.50
2022-08-10T23:05:12.547Z,52.10
2022-08-10T23:07:48.247Z,51.60
2022-08-10T23:10:21.756Z,51.20
2022-08-10T23:12:56.643Z,50.90
2022-08-10T23:15:46.014Z,50.70
2022-08-10T23:18:39.039Z,50.50
2022-08-10T23:21:12.878Z,50.30
2022-08-10T23:23:43.626Z,50.20
2022-08-10T23:26:16.070Z,50.10
2022-08-10T23:29:04.226Z,50.00
2022-08-10T23:31:59.078Z,50.00
2022-08-10T23:34:28.680Z,49.90
2022-08-10T23:37:00.465Z,49.80
2022-08-10T23:39:33.469Z,49.70
2022-08-10T23:42:07.711Z,49.70
2022-08-10T23:44:44.295Z,49.70
2022-08-10T23:47:15.424Z,49.70
2022-08-10T23:49:47.278Z,49.70
2022-08-10T23:52:20.877Z,49.70
2022-08-10T23:54:52.371Z,49.60
2022-08-10T23:57:23.649Z,49.60
2022-08-10T23:59:59.031Z,49.70
